Parkrose, Oregon
Current Conditions -  °F | °C
As of 7:53 AM on Saturday 25 Oct 2014 (Local Time) from KTTD Reporting Station
Light Rain Light Rain  
Wind Chill: 12°   Ceiling: 3700
Heat Index: 12°   Visibility: 4mi
Dew Point:   Wind: 8mph
Humidity: 86%   Direction: 80°E
Pressure: 29.59"   Gusts: NA
Location:  45.5423°N, 122.5°W
Report Text: KTTD 251453Z 08007KT 4SM -RA BR BKN037 OVC060 12/09 A2959 RMK AO2 SLP020 P0005 60005 T01170094 50035
Loading
Personal Weather Stations






























Interactive Weather Map
Tropical Storm Tracking
New forecast layout! Learn more

10-Day Weather Forecast

Advertisements
Track Severe Weather on mobile